Douglas

Latest Operating Information

Please note! Water release schedules often change without notice due to unanticipated changes in weather conditions and power system requirements.

Use caution near dams. A large amount of water may be discharged without warning at any time. Your safety depends on obeying all posted safety regulations and warnings. Learn more.

Generation Releases

Caption
Day Time Period Generators
5/22/2018 1am - midnight 2 or more
5/23/2018 midnight - 1am 2 or more

Observed Data

Caption
Day Time (Eastern) Reservoir Elevation (behind dam)* Tailwater Elevation (below dam)* Average Hourly Discharge*
5/20/2018 3 AM 994.04 873.36 9,631
5/20/2018 4 AM 994.09 873.38 9,645
5/20/2018 5 AM 994.13 873.34 9,637
5/20/2018 6 AM 994.19 873.38 9,591
5/20/2018 7 AM 994.23 873.37 9,569
5/20/2018 8 AM 994.28 873.50 9,699
5/20/2018 9 AM 994.30 875.12 15,694
5/20/2018 10 AM 994.35 875.18 15,923
5/20/2018 11 AM 994.38 875.18 15,934
5/20/2018 noon 994.40 875.16 15,939
5/20/2018 1 PM 994.42 875.15 15,920
5/20/2018 2 PM 994.47 875.13 15,886
5/20/2018 3 PM 994.51 875.18 15,909
5/20/2018 4 PM 994.54 875.16 15,899
5/20/2018 5 PM 994.57 875.16 15,866
5/20/2018 6 PM 994.64 873.79 10,596
5/20/2018 7 PM 994.68 873.69 10,372
5/20/2018 8 PM 994.72 873.67 10,330
5/20/2018 9 PM 994.77 873.67 10,330
5/20/2018 10 PM 994.83 873.66 10,290
5/20/2018 11 PM 994.85 873.68 10,266
5/20/2018 midnight 994.89 873.63 10,232
5/21/2018 1 AM 994.93 873.65 10,268
5/21/2018 2 AM 994.98 873.66 10,237
5/21/2018 3 AM 995.00 873.66 10,245
5/21/2018 4 AM 995.04 873.67 10,241
5/21/2018 5 AM 995.08 873.69 10,265
5/21/2018 6 AM 995.12 873.66 10,284
5/21/2018 7 AM 995.15 873.65 10,201
5/21/2018 8 AM 995.18 873.67 10,146
5/21/2018 9 AM 995.22 873.65 10,076
5/21/2018 10 AM 995.25 873.64 10,177
5/21/2018 11 AM 995.28 873.63 10,200
5/21/2018 noon 995.33 871.83 6,623
5/21/2018 1 PM 995.34 873.56 9,945
5/21/2018 2 PM 995.36 873.64 10,047
5/21/2018 3 PM 995.40 873.65 10,104
5/21/2018 4 PM 995.45 873.65 10,104
5/21/2018 5 PM 995.47 873.64 10,106
5/21/2018 6 PM 995.46 875.21 10,068
5/21/2018 7 PM 995.49 875.43 16,385
5/21/2018 8 PM 995.51 875.45 16,536
5/21/2018 9 PM 995.51 875.47 16,597
5/21/2018 10 PM 995.49 875.48 16,567
5/21/2018 11 PM 995.50 875.48 16,582
5/21/2018 midnight 995.53 875.47 16,589
5/22/2018 1 AM 995.55 875.49 16,590
5/22/2018 2 AM 995.53 875.44 16,480

Predicted Data

Caption
Day Average Inflow* Midnight Elevation* Average Outflow*
5/22/2018 16,968 995.58 16,380
5/23/2018 14,588 995.46 16,300
5/24/2018 14,933 995.37 16,300

*Elevations are in feet above sea level. Discharges are in cubic feet per second and are reported at the end of the hour.

Notes:

Water release schedules are updated periodically throughout the day. Next-day release schedules are usually available by 6 p.m. of the current day.

Observed water levels also are updated periodically throughout the day. Predicted water levels are updated at least once a day, by 1 p.m. Eastern time, and may be updated more frequently when conditions warrant.

Reservoir Information

Get the most up-to-date information for each of the reservoirs TVA manages, including today’s observed lake levels, predicted elevations, planned releases, reservoir operating guides, ecological health ratings, fish-population survey results, recreation facilities and more.

 

 

Lake Info App

Want your lake info to go? Download the TVA Lake Info app, an easy-to-use resource for operating on and around reservoirs and dams in the TVA region. Available for iPhone and Android devices.